Time;durP1;ratioP1;P1;durP2;ratioP2;P2;SDS_P1;SDS_P2;PMS_P1;PMS_P2;Temp;Humidity;BMP_temperature;BMP_pressure;BME280_temperature;BME280_humidity;BME280_pressure;Samples;Min_cycle;Max_cycle;Signal;HPM_P1;HPM_P2
2024/01/01 00:01:46;;;;;;;12.27;6.28;;;7.80;99.90;;;;;;5016513;28;20022;-62
2024/01/01 00:04:11;;;;;;;18.38;7.55;;;7.90;99.90;;;;;;5016496;28;20022;-62
2024/01/01 00:06:37;;;;;;;42.03;14.50;;;7.90;99.90;;;;;;5016293;28;20037;-62
2024/01/01 00:09:02;;;;;;;22.98;8.00;;;7.80;99.90;;;;;;5019917;28;20025;-62
2024/01/01 00:11:28;;;;;;;29.40;8.25;;;7.80;99.90;;;;;;5020022;28;20034;-62
2024/01/01 00:13:54;;;;;;;53.28;15.95;;;7.70;99.90;;;;;;5019768;28;20030;-62
2024/01/01 00:16:19;;;;;;;52.80;14.52;;;7.70;99.90;;;;;;5020233;28;20144;-62
2024/01/01 00:18:45;;;;;;;61.40;18.10;;;7.70;99.90;;;;;;5019715;28;20028;-61
2024/01/01 00:21:11;;;;;;;51.25;14.90;;;7.70;99.90;;;;;;5020098;28;20026;-63
2024/01/01 00:23:36;;;;;;;67.72;20.52;;;7.80;99.90;;;;;;5020055;28;20030;-62
2024/01/01 00:26:02;;;;;;;55.53;14.80;;;7.70;99.90;;;;;;5020012;28;20030;-62
2024/01/01 00:28:27;;;;;;;68.13;17.08;;;7.80;99.90;;;;;;5020303;28;20026;-62
2024/01/01 00:30:53;;;;;;;31.80;11.70;;;7.80;99.90;;;;;;5019609;28;20018;-62
2024/01/01 00:33:18;;;;;;;26.17;10.50;;;7.70;99.90;;;;;;5020255;28;20108;-62
2024/01/01 00:35:49;;;;;;;22.55;8.48;;;7.80;99.90;;;;;;5016443;28;20030;-61
2024/01/01 00:38:15;;;;;;;24.10;8.15;;;7.80;99.90;;;;;;4999892;28;20018;-62
2024/01/01 00:40:41;;;;;;;20.27;7.78;;;7.80;99.90;;;;;;4999640;28;20061;-62
2024/01/01 00:43:09;;;;;;;19.65;8.48;;;7.80;99.90;;;;;;5000766;28;20034;-62
2024/01/01 00:45:34;;;;;;;21.27;7.68;;;7.80;99.90;;;;;;4999524;28;20026;-62
2024/01/01 00:48:00;;;;;;;17.33;8.25;;;7.90;99.90;;;;;;5000084;28;20030;-62
2024/01/01 00:50:25;;;;;;;25.50;8.98;;;7.90;99.90;;;;;;4999932;28;20113;-62
2024/01/01 00:52:51;;;;;;;20.23;8.18;;;7.90;99.90;;;;;;5000466;28;20086;-62
2024/01/01 00:55:16;;;;;;;18.90;8.65;;;7.90;99.90;;;;;;5000590;28;20030;-62
2024/01/01 00:57:42;;;;;;;21.23;7.38;;;8.00;99.90;;;;;;5000571;28;20034;-62
2024/01/01 01:00:11;;;;;;;18.05;7.65;;;8.10;99.90;;;;;;4999780;28;20034;-62
2024/01/01 01:02:36;;;;;;;16.27;6.72;;;8.10;99.90;;;;;;5000159;28;20026;-62
2024/01/01 01:05:02;;;;;;;18.52;7.35;;;8.10;99.90;;;;;;4999709;28;20027;-62
2024/01/01 01:07:30;;;;;;;23.33;7.90;;;8.10;99.90;;;;;;5000435;28;20022;-62
2024/01/01 01:09:56;;;;;;;14.38;6.82;;;8.10;99.90;;;;;;4999466;28;20065;-62
2024/01/01 01:12:22;;;;;;;24.08;8.88;;;8.10;99.90;;;;;;4999206;28;20030;-62
2024/01/01 01:14:48;;;;;;;14.80;6.05;;;8.10;99.90;;;;;;4999595;28;20018;-63
2024/01/01 01:17:14;;;;;;;21.17;7.03;;;8.20;99.90;;;;;;4999535;28;20029;-62
2024/01/01 01:19:40;;;;;;;15.68;7.00;;;8.30;99.90;;;;;;4999016;28;20026;-62
2024/01/01 01:22:05;;;;;;;21.33;8.77;;;8.20;99.90;;;;;;4999387;28;20030;-63
2024/01/01 01:24:31;;;;;;;28.98;10.13;;;8.20;99.90;;;;;;4999964;28;20033;-62
2024/01/01 01:26:57;;;;;;;24.90;11.48;;;8.30;99.90;;;;;;4999226;28;20037;-62
2024/01/01 01:29:24;;;;;;;36.80;14.32;;;8.30;99.90;;;;;;4999269;28;20029;-62
2024/01/01 01:31:50;;;;;;;33.42;11.75;;;8.20;99.90;;;;;;4999147;28;20027;-62
2024/01/01 01:34:15;;;;;;;30.90;11.18;;;8.30;99.90;;;;;;4999078;28;20025;-62
2024/01/01 01:36:41;;;;;;;26.17;9.88;;;8.30;99.90;;;;;;4998792;28;20085;-62
2024/01/01 01:39:06;;;;;;;22.65;9.75;;;8.20;99.90;;;;;;4999527;28;20053;-62
2024/01/01 01:41:32;;;;;;;20.27;9.20;;;8.20;99.90;;;;;;4998811;28;20030;-62
2024/01/01 01:43:57;;;;;;;36.97;15.27;;;8.30;99.90;;;;;;4999078;28;20072;-62
2024/01/01 01:46:24;;;;;;;36.70;14.80;;;8.30;99.90;;;;;;4998802;28;20084;-63
2024/01/01 01:48:50;;;;;;;33.25;14.95;;;8.20;99.90;;;;;;4998953;28;20117;-62
2024/01/01 01:51:16;;;;;;;31.23;14.50;;;8.20;99.90;;;;;;4998647;28;20073;-62
2024/01/01 01:53:42;;;;;;;38.35;15.55;;;8.20;99.90;;;;;;4998893;28;20118;-62
2024/01/01 01:56:07;;;;;;;38.67;16.48;;;8.20;99.90;;;;;;4998524;28;20030;-62
2024/01/01 01:58:34;;;;;;;46.67;18.83;;;8.20;99.90;;;;;;4998637;28;20057;-61
2024/01/01 02:01:00;;;;;;;47.95;20.70;;;8.20;99.90;;;;;;4998340;28;20053;-62
2024/01/01 02:03:25;;;;;;;46.30;20.48;;;8.10;99.90;;;;;;4998486;28;20028;-62
2024/01/01 02:05:51;;;;;;;49.03;21.88;;;8.10;99.90;;;;;;4998913;28;20117;-63
2024/01/01 02:08:18;;;;;;;45.58;20.40;;;8.10;99.90;;;;;;4998642;28;20026;-63
2024/01/01 02:10:44;;;;;;;50.78;20.67;;;8.10;99.90;;;;;;4998350;28;20030;-62
2024/01/01 02:13:27;;;;;;;46.63;20.85;;;8.10;99.90;;;;;;4998520;28;20082;-62
2024/01/01 02:15:53;;;;;;;57.30;20.70;;;8.10;99.90;;;;;;4998153;28;20089;-62
2024/01/01 02:18:19;;;;;;;46.78;20.67;;;8.10;99.90;;;;;;4998755;28;20022;-63
2024/01/01 02:20:45;;;;;;;42.97;18.83;;;8.10;99.90;;;;;;4998046;28;20053;-62
2024/01/01 02:23:10;;;;;;;48.42;19.67;;;8.10;99.90;;;;;;4997872;28;20030;-62
2024/01/01 02:25:36;;;;;;;47.00;20.15;;;8.10;99.90;;;;;;4998183;28;20076;-62
2024/01/01 02:28:01;;;;;;;42.30;17.83;;;8.20;99.90;;;;;;4998340;28;20095;-62
2024/01/01 02:30:27;;;;;;;39.50;17.80;;;8.20;99.90;;;;;;4997278;28;20022;-62
2024/01/01 02:32:52;;;;;;;42.85;17.50;;;8.10;99.90;;;;;;4998123;28;20028;-62
2024/01/01 02:35:18;;;;;;;39.75;16.33;;;8.10;99.90;;;;;;4998660;28;20030;-62
2024/01/01 02:37:43;;;;;;;32.55;13.65;;;8.20;99.90;;;;;;4998492;28;20062;-62
2024/01/01 02:40:11;;;;;;;17.25;7.28;;;8.20;99.90;;;;;;4998506;28;20022;-62
2024/01/01 02:42:37;;;;;;;18.15;8.50;;;8.00;99.90;;;;;;5036723;23;20070;-63
2024/01/01 02:45:03;;;;;;;23.98;9.43;;;7.90;99.90;;;;;;5017266;28;20057;-63
2024/01/01 02:47:29;;;;;;;32.67;12.25;;;7.90;99.90;;;;;;5017430;28;20030;-63
2024/01/01 02:49:55;;;;;;;31.60;13.15;;;8.00;99.90;;;;;;5016225;28;20072;-63
2024/01/01 02:52:20;;;;;;;40.33;15.55;;;7.90;99.90;;;;;;5032611;28;20061;-63
2024/01/01 02:54:46;;;;;;;28.90;11.80;;;7.80;99.90;;;;;;5017155;28;20026;-62
2024/01/01 02:57:12;;;;;;;32.15;11.13;;;7.80;99.90;;;;;;5033727;28;20018;-63
2024/01/01 02:59:39;;;;;;;36.13;12.02;;;7.90;99.90;;;;;;5017043;28;20022;-63
2024/01/01 03:02:04;;;;;;;25.80;10.38;;;8.00;99.90;;;;;;5016468;28;20033;-63
2024/01/01 03:04:31;;;;;;;23.15;10.48;;;8.00;99.90;;;;;;5032916;28;20025;-63
2024/01/01 03:06:57;;;;;;;26.67;10.00;;;7.90;99.90;;;;;;5033139;28;20025;-69
2024/01/01 03:09:23;;;;;;;25.67;10.98;;;8.00;99.90;;;;;;5032431;28;20112;-69
2024/01/01 03:11:48;;;;;;;28.48;10.60;;;7.80;99.90;;;;;;5016916;28;20065;-68
2024/01/01 03:14:14;;;;;;;26.73;10.95;;;7.70;99.90;;;;;;5032467;28;20118;-69
2024/01/01 03:16:40;;;;;;;29.40;12.60;;;7.80;99.90;;;;;;5017090;28;20032;-68
2024/01/01 03:19:06;;;;;;;21.92;9.73;;;7.80;99.90;;;;;;5017029;28;20022;-69
2024/01/01 03:21:31;;;;;;;24.52;9.80;;;7.60;99.90;;;;;;5016435;28;20026;-69
2024/01/01 03:23:57;;;;;;;22.63;10.13;;;7.60;99.90;;;;;;5016822;28;20026;-69
2024/01/01 03:26:22;;;;;;;23.40;9.55;;;7.50;99.90;;;;;;5016660;28;20109;-69
2024/01/01 03:28:48;;;;;;;18.58;8.18;;;7.60;99.90;;;;;;5016737;28;20034;-69
2024/01/01 03:31:14;;;;;;;23.58;8.27;;;7.60;99.90;;;;;;5017031;28;20022;-69
2024/01/01 03:33:39;;;;;;;17.77;7.68;;;7.70;99.90;;;;;;5016795;28;20018;-69
2024/01/01 03:36:05;;;;;;;15.45;6.15;;;7.70;99.90;;;;;;5015741;28;20029;-69
2024/01/01 03:38:31;;;;;;;15.80;5.93;;;7.80;99.90;;;;;;5015995;28;20029;-69
2024/01/01 03:40:56;;;;;;;17.13;4.37;;;7.80;99.90;;;;;;4980797;28;1028131;-68
2024/01/01 03:43:22;;;;;;;13.70;4.03;;;7.80;99.90;;;;;;5016625;28;20073;-69
2024/01/01 03:45:47;;;;;;;12.68;3.65;;;7.80;99.90;;;;;;5017207;28;20030;-69
2024/01/01 03:48:13;;;;;;;15.88;3.47;;;7.80;99.90;;;;;;5016326;28;20022;-69
2024/01/01 03:50:39;;;;;;;9.73;3.80;;;7.90;99.90;;;;;;5017501;28;20022;-69
2024/01/01 03:53:04;;;;;;;11.30;3.22;;;7.90;99.90;;;;;;5016458;28;20076;-69
2024/01/01 03:55:30;;;;;;;10.93;3.45;;;7.90;99.90;;;;;;5016560;28;20026;-69
2024/01/01 03:57:56;;;;;;;11.32;3.58;;;7.90;99.90;;;;;;5017361;28;20109;-69
2024/01/01 04:00:22;;;;;;;11.88;4.00;;;7.90;99.90;;;;;;5016170;28;20057;-69
2024/01/01 04:02:48;;;;;;;14.30;3.45;;;7.90;99.90;;;;;;5017016;28;20072;-69
2024/01/01 04:05:14;;;;;;;12.63;4.40;;;7.90;99.90;;;;;;5017032;28;20109;-69
2024/01/01 04:07:39;;;;;;;11.48;4.25;;;8.00;99.90;;;;;;5016044;28;20045;-69
2024/01/01 04:10:06;;;;;;;12.93;4.72;;;8.00;99.90;;;;;;5016420;28;20026;-69
2024/01/01 04:12:32;;;;;;;14.25;4.88;;;7.90;99.90;;;;;;5032581;28;20030;-69
2024/01/01 04:14:57;;;;;;;10.70;4.10;;;7.90;99.90;;;;;;5016171;28;20168;-69
2024/01/01 04:17:23;;;;;;;10.73;4.50;;;8.00;99.90;;;;;;5016335;28;20022;-69
2024/01/01 04:19:49;;;;;;;10.75;4.28;;;8.00;99.90;;;;;;5015975;28;20025;-69
2024/01/01 04:22:15;;;;;;;10.68;4.40;;;8.00;99.90;;;;;;5016066;28;20104;-69
2024/01/01 04:24:42;;;;;;;20.42;5.88;;;8.00;99.90;;;;;;5016244;28;20049;-69
2024/01/01 04:27:08;;;;;;;14.35;5.97;;;7.90;99.90;;;;;;5017137;28;20014;-68
2024/01/01 04:29:34;;;;;;;20.38;6.35;;;7.90;99.90;;;;;;5015871;28;20052;-69
2024/01/01 04:31:59;;;;;;;14.30;5.38;;;7.90;99.90;;;;;;5016888;28;20030;-69
2024/01/01 04:34:25;;;;;;;13.10;5.85;;;8.00;99.90;;;;;;5016896;28;20105;-69
2024/01/01 04:36:50;;;;;;;14.05;6.10;;;8.00;99.90;;;;;;5017137;28;20057;-69
2024/01/01 04:39:16;;;;;;;20.55;6.05;;;8.00;99.90;;;;;;5015914;28;20026;-69
2024/01/01 04:41:42;;;;;;;11.45;4.93;;;8.00;99.90;;;;;;5016906;28;20068;-69
2024/01/01 04:44:07;;;;;;;11.73;4.30;;;8.00;99.90;;;;;;5016123;28;20026;-69
2024/01/01 04:46:33;;;;;;;17.67;4.25;;;8.10;99.90;;;;;;5015883;28;20053;-69
2024/01/01 04:48:58;;;;;;;13.48;3.28;;;8.10;99.90;;;;;;5016560;28;20029;-69
2024/01/01 04:51:24;;;;;;;6.90;2.30;;;8.10;99.90;;;;;;5015681;28;20029;-69
2024/01/01 04:53:49;;;;;;;5.70;2.53;;;8.10;99.90;;;;;;5017891;28;20026;-69
2024/01/01 04:56:16;;;;;;;11.52;2.65;;;8.10;99.90;;;;;;5019196;28;20030;-69
2024/01/01 04:58:42;;;;;;;15.98;3.33;;;8.10;99.90;;;;;;5019915;28;20041;-68
2024/01/01 05:01:08;;;;;;;13.77;3.17;;;8.10;99.90;;;;;;5020285;28;20026;-69
2024/01/01 05:03:34;;;;;;;14.00;3.90;;;8.10;99.90;;;;;;5019029;28;20030;-69
2024/01/01 05:05:59;;;;;;;11.68;4.20;;;8.10;99.90;;;;;;5020195;28;20048;-69
2024/01/01 05:08:25;;;;;;;11.38;4.50;;;8.20;99.90;;;;;;5019007;28;20018;-69
2024/01/01 05:10:50;;;;;;;11.88;4.82;;;8.10;99.90;;;;;;5020145;28;20030;-69
2024/01/01 05:13:16;;;;;;;11.48;4.05;;;8.20;99.90;;;;;;5035801;28;20033;-69
2024/01/01 05:15:43;;;;;;;14.35;4.10;;;8.20;99.90;;;;;;5018924;28;20022;-69
2024/01/01 05:18:08;;;;;;;9.20;3.00;;;8.10;99.90;;;;;;5035409;28;20089;-69
2024/01/01 05:20:34;;;;;;;13.10;2.63;;;8.10;99.90;;;;;;5019654;28;20029;-69
2024/01/01 05:22:59;;;;;;;15.35;3.33;;;8.00;99.90;;;;;;5018647;28;20080;-69
2024/01/01 05:25:25;;;;;;;9.68;1.98;;;8.00;99.90;;;;;;5018750;28;20072;-69
2024/01/01 05:27:50;;;;;;;8.50;2.30;;;8.00;99.90;;;;;;5018600;28;20056;-69
2024/01/01 05:30:16;;;;;;;11.68;3.22;;;8.00;99.90;;;;;;5019502;28;20018;-69
2024/01/01 05:32:42;;;;;;;10.15;2.63;;;8.00;99.90;;;;;;5019370;28;20022;-69
2024/01/01 05:35:08;;;;;;;8.55;2.67;;;8.10;99.90;;;;;;5035857;28;20025;-69
2024/01/01 05:37:33;;;;;;;13.27;2.83;;;8.20;99.90;;;;;;5018888;28;20029;-69
2024/01/01 05:39:59;;;;;;;7.63;2.70;;;8.10;99.90;;;;;;5019237;28;20125;-69
2024/01/01 05:42:24;;;;;;;11.68;2.45;;;8.10;99.90;;;;;;5018446;28;20044;-69
2024/01/01 05:44:50;;;;;;;12.32;3.60;;;8.10;99.90;;;;;;5019168;28;20092;-69
2024/01/01 05:47:15;;;;;;;12.20;3.25;;;8.20;99.90;;;;;;5035602;28;20018;-69
2024/01/01 05:49:41;;;;;;;12.68;2.13;;;8.20;99.90;;;;;;5018290;28;20022;-69
2024/01/01 05:52:06;;;;;;;15.40;2.22;;;8.10;99.90;;;;;;5019025;28;20018;-69
2024/01/01 05:54:32;;;;;;;6.75;1.95;;;8.10;99.90;;;;;;5019293;28;20042;-69
2024/01/01 05:56:58;;;;;;;8.82;1.95;;;8.10;99.90;;;;;;5018177;28;20029;-69
2024/01/01 05:59:23;;;;;;;6.22;1.27;;;8.10;99.90;;;;;;5017989;28;20026;-69
2024/01/01 06:01:49;;;;;;;6.43;1.67;;;8.10;99.90;;;;;;5018902;28;20042;-69
2024/01/01 06:04:14;;;;;;;10.45;2.28;;;8.10;99.90;;;;;;5018876;28;20033;-69
2024/01/01 06:06:40;;;;;;;11.52;1.85;;;8.10;99.90;;;;;;5017865;28;20038;-69
2024/01/01 06:09:05;;;;;;;7.65;1.40;;;8.10;99.90;;;;;;5019397;28;20072;-69
2024/01/01 06:11:31;;;;;;;7.95;1.67;;;8.10;99.90;;;;;;5018796;28;20075;-69
2024/01/01 06:13:56;;;;;;;5.65;1.23;;;8.20;99.90;;;;;;5018059;28;20033;-69
2024/01/01 06:16:25;;;;;;;11.32;1.10;;;8.20;99.90;;;;;;5017816;28;20072;-69
2024/01/01 06:18:50;;;;;;;8.65;1.38;;;8.20;99.90;;;;;;5017635;28;20033;-69
2024/01/01 06:21:16;;;;;;;8.93;1.70;;;8.20;99.90;;;;;;5018642;28;20034;-69
2024/01/01 06:23:45;;;;;;;11.70;1.70;;;8.10;99.90;;;;;;5018431;28;20030;-69
2024/01/01 06:26:11;;;;;;;5.30;0.90;;;8.20;99.90;;;;;;5018327;28;20048;-69
2024/01/01 06:28:36;;;;;;;4.40;1.40;;;8.30;99.90;;;;;;5018761;28;20022;-69
2024/01/01 06:31:02;;;;;;;4.63;1.52;;;8.30;99.90;;;;;;5017662;28;20029;-69
2024/01/01 06:33:29;;;;;;;9.02;1.30;;;8.20;99.90;;;;;;5018427;28;20033;-69
2024/01/01 06:35:55;;;;;;;5.22;1.00;;;8.20;99.90;;;;;;5018246;28;20060;-69
2024/01/01 06:38:20;;;;;;;5.30;1.40;;;8.30;99.90;;;;;;5017340;28;20049;-69
2024/01/01 06:40:46;;;;;;;6.97;1.75;;;8.30;99.90;;;;;;5017193;28;20033;-69
2024/01/01 06:43:12;;;;;;;7.32;1.20;;;8.30;99.90;;;;;;5018566;28;20036;-69
2024/01/01 06:45:37;;;;;;;4.70;0.90;;;8.30;99.90;;;;;;5017405;28;20033;-69
2024/01/01 06:48:03;;;;;;;5.10;1.23;;;8.40;99.90;;;;;;5018187;28;20025;-69
2024/01/01 06:50:30;;;;;;;16.83;1.35;;;8.30;99.90;;;;;;5017757;28;20037;-69
2024/01/01 06:52:56;;;;;;;13.52;1.48;;;8.30;99.90;;;;;;5017039;28;20014;-69
2024/01/01 06:55:24;;;;;;;13.90;1.60;;;8.30;99.90;;;;;;5018210;28;20151;-69
2024/01/01 06:57:50;;;;;;;6.90;1.23;;;8.30;99.90;;;;;;5017983;28;20033;-69
2024/01/01 07:00:17;;;;;;;13.18;1.80;;;8.30;99.90;;;;;;5017846;28;20026;-69
2024/01/01 07:02:42;;;;;;;6.90;1.90;;;8.10;99.90;;;;;;5017850;28;20025;-69
2024/01/01 07:05:08;;;;;;;9.18;1.65;;;8.10;99.90;;;;;;5017221;28;20021;-69
2024/01/01 07:07:34;;;;;;;8.13;1.55;;;8.00;99.90;;;;;;5017738;28;20040;-69
2024/01/01 07:09:59;;;;;;;6.53;1.13;;;7.90;99.90;;;;;;5017694;28;20018;-69
2024/01/01 07:12:27;;;;;;;9.77;1.20;;;7.70;99.90;;;;;;5016679;28;20026;-69
2024/01/01 07:14:53;;;;;;;7.88;1.30;;;7.70;99.90;;;;;;5016799;28;20025;-69
2024/01/01 07:17:19;;;;;;;9.05;1.65;;;7.70;99.90;;;;;;5032962;28;20030;-69
2024/01/01 07:19:45;;;;;;;11.25;2.08;;;7.90;99.90;;;;;;5016731;28;20029;-69
2024/01/01 07:22:11;;;;;;;10.65;1.02;;;7.90;99.90;;;;;;5017447;28;20022;-69
2024/01/01 07:24:37;;;;;;;7.35;1.02;;;7.80;99.90;;;;;;5016751;28;20021;-69
2024/01/01 07:27:03;;;;;;;5.63;1.50;;;7.70;99.90;;;;;;5016471;28;20129;-69
2024/01/01 07:29:29;;;;;;;7.75;1.50;;;7.70;99.90;;;;;;5017413;28;20022;-69
2024/01/01 07:31:55;;;;;;;5.63;1.20;;;7.70;99.90;;;;;;5016593;28;20068;-69
2024/01/01 07:34:21;;;;;;;7.03;1.52;;;7.80;99.90;;;;;;5017510;28;20046;-68
2024/01/01 07:36:47;;;;;;;5.88;0.85;;;7.60;99.90;;;;;;5017638;28;20029;-69
2024/01/01 07:39:13;;;;;;;9.57;1.30;;;7.50;99.90;;;;;;5017362;28;20022;-69
2024/01/01 07:41:39;;;;;;;8.82;1.55;;;7.60;99.90;;;;;;5017099;28;20045;-69
2024/01/01 07:44:07;;;;;;;3.78;0.85;;;7.70;99.90;;;;;;5016659;28;20025;-69
2024/01/01 07:46:32;;;;;;;9.20;1.23;;;7.70;99.90;;;;;;5017418;28;20033;-69
2024/01/01 07:49:00;;;;;;;3.03;1.20;;;7.80;99.90;;;;;;5017088;28;20018;-68
2024/01/01 07:51:25;;;;;;;8.70;1.42;;;7.80;99.90;;;;;;5017215;28;20022;-69
2024/01/01 07:53:51;;;;;;;8.93;1.35;;;7.90;99.90;;;;;;5016313;28;20018;-69
2024/01/01 07:56:17;;;;;;;8.00;1.60;;;7.90;99.90;;;;;;5017193;28;20029;-69
2024/01/01 07:58:42;;;;;;;16.20;1.23;;;7.80;99.90;;;;;;5017093;28;20029;-68
2024/01/01 08:01:09;;;;;;;7.45;2.05;;;7.60;99.90;;;;;;5016495;28;20018;-68
2024/01/01 08:03:34;;;;;;;7.32;2.05;;;7.60;99.90;;;;;;5016215;28;20021;-69
2024/01/01 08:06:00;;;;;;;5.50;1.23;;;7.60;99.90;;;;;;5016070;28;20025;-69
2024/01/01 08:08:26;;;;;;;9.25;1.10;;;7.70;99.90;;;;;;5016181;28;20021;-69
2024/01/01 08:10:53;;;;;;;7.90;1.13;;;7.80;99.90;;;;;;5016986;28;20032;-69
2024/01/01 08:13:18;;;;;;;12.50;1.70;;;7.90;99.90;;;;;;5032632;28;20091;-69
2024/01/01 08:15:44;;;;;;;13.13;2.70;;;8.00;99.90;;;;;;5016524;28;20026;-69
2024/01/01 08:18:09;;;;;;;9.95;1.65;;;8.00;99.90;;;;;;5017261;28;20030;-69
2024/01/01 08:20:35;;;;;;;6.10;0.90;;;8.10;99.90;;;;;;5016886;28;20041;-69
2024/01/01 08:23:00;;;;;;;10.18;1.17;;;8.10;99.90;;;;;;5016045;28;20022;-69
2024/01/01 08:25:26;;;;;;;8.38;1.20;;;8.20;99.90;;;;;;5016315;28;20064;-69
2024/01/01 08:27:51;;;;;;;8.00;0.90;;;8.20;99.90;;;;;;5015994;28;20018;-69
2024/01/01 08:30:17;;;;;;;4.05;1.23;;;8.30;99.90;;;;;;5019783;28;20224;-69
2024/01/01 08:32:42;;;;;;;7.95;1.65;;;8.30;99.90;;;;;;5020000;28;20022;-69
2024/01/01 08:35:08;;;;;;;5.07;1.00;;;8.20;99.90;;;;;;5020088;28;20133;-69
2024/01/01 08:37:34;;;;;;;7.70;0.88;;;8.20;99.90;;;;;;5019668;28;20030;-69
2024/01/01 08:39:59;;;;;;;4.15;1.00;;;8.30;99.90;;;;;;5019662;28;20026;-69
2024/01/01 08:42:25;;;;;;;11.13;1.00;;;8.30;99.90;;;;;;5044227;22;20050;-65
2024/01/01 08:44:51;;;;;;;8.95;1.10;;;8.30;99.90;;;;;;5020635;28;20018;-65
2024/01/01 08:47:17;;;;;;;12.77;1.05;;;8.40;99.90;;;;;;5019607;28;20033;-65
2024/01/01 08:49:43;;;;;;;6.13;1.10;;;8.40;99.90;;;;;;5019445;28;20214;-65
2024/01/01 08:52:08;;;;;;;11.48;1.35;;;8.50;99.90;;;;;;5019307;28;20029;-65
2024/01/01 08:54:34;;;;;;;5.82;1.48;;;8.50;99.90;;;;;;5020859;28;20053;-65
2024/01/01 08:56:59;;;;;;;6.32;1.42;;;8.50;99.90;;;;;;5020371;28;20053;-65
2024/01/01 08:59:25;;;;;;;9.82;1.48;;;8.50;99.90;;;;;;5019641;28;20032;-66
2024/01/01 09:01:50;;;;;;;5.80;1.55;;;8.40;99.90;;;;;;5019062;28;20117;-65
2024/01/01 09:04:17;;;;;;;7.68;1.27;;;8.50;99.90;;;;;;5020237;28;20052;-66
2024/01/01 09:06:43;;;;;;;12.65;1.92;;;8.50;99.90;;;;;;5020565;28;20026;-65
2024/01/01 09:09:10;;;;;;;7.60;1.35;;;8.40;99.90;;;;;;5020095;28;20049;-66
2024/01/01 09:11:36;;;;;;;8.23;1.10;;;8.50;99.90;;;;;;5019855;28;20049;-66
2024/01/01 09:14:01;;;;;;;8.82;1.35;;;8.50;99.90;;;;;;5019363;28;20018;-66
2024/01/01 09:16:29;;;;;;;9.10;2.40;;;8.60;99.90;;;;;;5019976;28;20036;-66
2024/01/01 09:18:56;;;;;;;12.27;2.25;;;8.60;99.90;;;;;;5019051;28;20030;-66
2024/01/01 09:21:24;;;;;;;7.10;1.10;;;8.60;99.90;;;;;;5018709;28;20075;-66
2024/01/01 09:23:50;;;;;;;6.40;0.90;;;8.60;99.90;;;;;;5018989;28;20026;-65
2024/01/01 09:26:15;;;;;;;10.30;1.73;;;8.60;99.90;;;;;;5019583;28;20100;-66
2024/01/01 09:28:41;;;;;;;8.40;2.08;;;8.60;99.90;;;;;;5019579;28;20022;-66
2024/01/01 09:31:06;;;;;;;13.48;1.70;;;8.70;99.90;;;;;;5018697;28;20025;-65
2024/01/01 09:33:32;;;;;;;6.07;1.30;;;8.70;99.90;;;;;;5018657;28;20025;-66
2024/01/01 09:35:57;;;;;;;6.13;1.35;;;8.60;99.90;;;;;;5018888;28;20097;-65
2024/01/01 09:38:23;;;;;;;8.30;1.52;;;8.50;99.90;;;;;;5019636;28;20029;-66
2024/01/01 09:40:49;;;;;;;11.10;1.70;;;8.50;99.90;;;;;;5019376;28;20026;-66
2024/01/01 09:43:16;;;;;;;12.85;1.55;;;8.60;99.90;;;;;;5018614;28;20037;-66
2024/01/01 09:45:42;;;;;;;9.23;1.20;;;8.60;99.90;;;;;;5019498;28;20033;-66
2024/01/01 09:48:08;;;;;;;7.03;1.25;;;8.50;99.90;;;;;;5018284;28;20037;-65
2024/01/01 09:50:34;;;;;;;10.85;1.67;;;8.40;99.90;;;;;;5019175;28;20104;-66
2024/01/01 09:53:00;;;;;;;13.70;1.58;;;8.40;99.90;;;;;;5018224;28;20029;-65
2024/01/01 09:55:26;;;;;;;7.70;1.55;;;8.30;99.90;;;;;;5019044;28;20048;-66
2024/01/01 09:57:51;;;;;;;9.18;1.20;;;8.30;99.90;;;;;;5019235;28;20025;-66
2024/01/01 10:00:24;;;;;;;10.55;1.30;;;8.30;99.90;;;;;;5018639;28;20022;-66
2024/01/01 10:02:50;;;;;;;9.38;1.38;;;8.30;99.90;;;;;;5018743;28;20026;-65
2024/01/01 10:05:17;;;;;;;4.93;0.90;;;8.20;99.90;;;;;;5019087;28;20055;-66
2024/01/01 10:07:44;;;;;;;12.80;2.25;;;8.20;99.90;;;;;;5018857;28;20032;-65
2024/01/01 10:10:12;;;;;;;5.75;1.35;;;8.30;99.90;;;;;;5018401;28;20029;-66
2024/01/01 10:12:39;;;;;;;11.25;1.52;;;8.30;99.90;;;;;;5018843;28;20022;-66
2024/01/01 10:15:06;;;;;;;6.25;1.55;;;8.30;99.90;;;;;;5019152;28;20064;-66
2024/01/01 10:17:31;;;;;;;7.00;1.00;;;8.30;99.90;;;;;;5017815;28;20022;-65
2024/01/01 10:20:00;;;;;;;9.20;2.45;;;8.30;99.90;;;;;;5017783;28;20080;-66
2024/01/01 10:22:30;;;;;;;2.42;0.80;;;8.20;99.90;;;;;;5018514;28;20018;-66
2024/01/01 10:25:13;;;;;;;7.53;1.30;;;8.20;99.90;;;;;;5017583;28;20026;-65
2024/01/01 10:27:38;;;;;;;5.30;1.05;;;8.10;99.90;;;;;;5018619;28;20029;-65
2024/01/01 10:30:05;;;;;;;12.75;1.60;;;8.10;99.90;;;;;;5018700;28;20026;-65
2024/01/01 10:32:32;;;;;;;5.13;1.38;;;8.10;99.90;;;;;;5017709;28;20034;-65
2024/01/01 10:34:58;;;;;;;4.53;1.00;;;8.00;99.90;;;;;;5017614;28;20030;-65
2024/01/01 10:37:26;;;;;;;7.00;1.05;;;8.00;99.90;;;;;;5017654;28;20030;-65
2024/01/01 10:39:53;;;;;;;6.38;0.73;;;7.90;99.90;;;;;;5017350;28;20018;-65
2024/01/01 10:42:19;;;;;;;4.18;0.88;;;7.90;99.90;;;;;;5017343;28;20025;-66
2024/01/01 10:44:44;;;;;;;5.47;1.23;;;7.90;99.90;;;;;;5018140;28;20026;-66
2024/01/01 10:47:10;;;;;;;6.18;0.80;;;7.80;99.90;;;;;;5017334;28;20113;-65
2024/01/01 10:49:46;;;;;;;7.07;0.95;;;7.80;99.90;;;;;;5018186;28;20033;-65
2024/01/01 10:52:29;;;;;;;7.88;0.80;;;7.80;99.90;;;;;;5017591;28;20029;-65
2024/01/01 10:55:20;;;;;;;5.47;1.52;;;7.80;99.90;;;;;;5018154;28;20022;-65
2024/01/01 10:58:06;;;;;;;10.60;1.05;;;7.80;99.90;;;;;;5018291;28;20081;-66
2024/01/01 11:00:37;;;;;;;6.80;1.58;;;7.80;99.90;;;;;;5018186;28;20029;-66
2024/01/01 11:03:04;;;;;;;9.32;1.83;;;7.90;99.90;;;;;;5016992;28;20030;-65
2024/01/01 11:05:34;;;;;;;8.48;1.10;;;7.90;99.90;;;;;;5017719;28;20037;-65
2024/01/01 11:08:01;;;;;;;6.47;1.08;;;8.00;99.90;;;;;;5018065;28;20113;-66
2024/01/01 11:10:42;;;;;;;8.13;1.48;;;8.00;99.90;;;;;;5017808;28;20093;-66
2024/01/01 11:13:12;;;;;;;3.38;0.95;;;8.10;99.90;;;;;;5017616;28;20018;-65
2024/01/01 11:15:43;;;;;;;3.53;1.10;;;8.10;99.90;;;;;;5017704;28;20030;-65
2024/01/01 11:18:18;;;;;;;11.37;1.40;;;8.20;99.90;;;;;;5017885;28;20029;-65
2024/01/01 11:20:55;;;;;;;10.07;1.55;;;8.30;99.90;;;;;;5017669;28;20034;-65
2024/01/01 11:23:42;;;;;;;8.35;1.27;;;8.40;99.90;;;;;;5017379;28;20032;-65
2024/01/01 11:26:23;;;;;;;7.45;1.45;;;8.40;99.90;;;;;;5016498;28;20061;-66
2024/01/01 11:28:53;;;;;;;9.68;0.88;;;8.40;99.90;;;;;;5017416;28;20101;-66
2024/01/01 11:31:18;;;;;;;5.35;1.60;;;8.50;99.90;;;;;;5017415;28;20036;-66
2024/01/01 11:33:44;;;;;;;8.00;0.88;;;8.50;99.90;;;;;;5017371;28;20033;-65
2024/01/01 11:36:10;;;;;;;6.68;1.02;;;8.50;99.90;;;;;;5017365;28;20025;-65
2024/01/01 11:38:39;;;;;;;7.57;1.10;;;8.50;99.90;;;;;;5016485;28;20028;-66
2024/01/01 11:41:05;;;;;;;2.22;1.00;;;8.50;99.90;;;;;;5017264;28;20041;-66
2024/01/01 11:43:32;;;;;;;5.95;0.82;;;8.60;99.90;;;;;;5017234;28;20045;-66
2024/01/01 11:45:57;;;;;;;4.20;0.88;;;8.60;99.90;;;;;;5016386;28;20033;-66
2024/01/01 11:48:24;;;;;;;4.22;0.75;;;8.50;99.90;;;;;;5017238;28;20030;-65
2024/01/01 11:50:50;;;;;;;11.05;1.42;;;8.50;99.90;;;;;;5016316;28;20026;-66
2024/01/01 11:53:16;;;;;;;4.88;1.20;;;8.40;99.90;;;;;;5017236;28;20033;-66
2024/01/01 11:55:41;;;;;;;10.20;1.02;;;8.50;99.90;;;;;;5016451;28;20030;-66
2024/01/01 11:58:08;;;;;;;5.88;1.05;;;8.50;99.90;;;;;;5017145;28;20026;-65
2024/01/01 12:00:34;;;;;;;6.40;0.90;;;8.50;99.90;;;;;;5016659;28;20033;-66
2024/01/01 12:03:02;;;;;;;14.55;1.45;;;8.50;99.90;;;;;;5017006;28;20212;-65
2024/01/01 12:05:28;;;;;;;3.90;1.02;;;8.50;99.90;;;;;;5020067;28;20117;-66
2024/01/01 12:07:53;;;;;;;5.07;1.45;;;8.60;99.90;;;;;;5020483;28;20098;-65
2024/01/01 12:10:19;;;;;;;6.43;1.42;;;8.50;99.90;;;;;;5021278;28;20026;-65
2024/01/01 12:12:44;;;;;;;7.20;1.10;;;8.50;99.90;;;;;;5020255;28;20026;-65
2024/01/01 12:15:16;;;;;;;9.32;2.05;;;8.50;99.90;;;;;;5020039;28;20045;-66
2024/01/01 12:17:49;;;;;;;5.80;1.35;;;8.60;99.90;;;;;;5021201;28;20037;-65
2024/01/01 12:20:17;;;;;;;6.45;1.00;;;8.60;99.90;;;;;;5020834;28;20036;-65
2024/01/01 12:22:43;;;;;;;3.22;0.90;;;8.60;99.90;;;;;;5020156;28;20068;-65
2024/01/01 12:25:15;;;;;;;4.50;1.40;;;8.50;99.90;;;;;;5019995;28;20057;-65
2024/01/01 12:27:40;;;;;;;8.18;0.98;;;8.60;99.90;;;;;;5020714;28;20018;-66
2024/01/01 12:30:07;;;;;;;8.30;1.80;;;8.50;99.90;;;;;;5021205;28;20041;-65
2024/01/01 12:32:32;;;;;;;2.78;0.60;;;8.50;99.90;;;;;;5020564;28;20026;-65
2024/01/01 12:34:58;;;;;;;8.43;1.13;;;8.50;99.90;;;;;;5021147;28;20075;-65
2024/01/01 12:37:23;;;;;;;3.90;1.42;;;8.40;99.90;;;;;;5020672;28;20041;-67
2024/01/01 12:39:50;;;;;;;12.18;1.40;;;8.40;99.90;;;;;;5020991;28;20021;-65
2024/01/01 12:42:16;;;;;;;5.85;1.30;;;8.40;99.90;;;;;;5020173;28;20116;-65
2024/01/01 12:44:42;;;;;;;6.35;1.20;;;8.50;99.90;;;;;;5019874;28;20029;-66
2024/01/01 12:47:07;;;;;;;4.63;1.10;;;8.60;99.90;;;;;;5020233;28;20084;-65